Time;durP1;ratioP1;P1;durP2;ratioP2;P2;SDS_P1;SDS_P2;PMS_P1;PMS_P2;Temp;Humidity;BMP_temperature;BMP_pressure;BME280_temperature;BME280_humidity;BME280_pressure;Samples;Min_cycle;Max_cycle;Signal;HPM_P1;HPM_P2
2022/07/05 00:00:07;;;;;;;0.00;0.00;;;;;;;;;;5087039;28;20088;-60
2022/07/05 00:02:33;;;;;;;0.00;0.00;;;;;;;;;;5097000;28;20143;-61
2022/07/05 00:05:00;;;;;;;0.00;0.00;;;;;;;;;;5090860;28;20052;-60
2022/07/05 00:07:26;;;;;;;0.00;0.00;;;;;;;;;;5094827;28;20111;-61
2022/07/05 00:09:54;;;;;;;0.00;0.00;;;;;;;;;;5098364;27;20055;-61
2022/07/05 00:12:22;;;;;;;0.00;0.00;;;;;;;;;;5091258;27;20114;-61
2022/07/05 00:14:49;;;;;;;0.00;0.00;;;;;;;;;;5088356;28;20112;-61
2022/07/05 00:17:15;;;;;;;0.00;0.00;;;;;;;;;;5090193;28;20207;-60
2022/07/05 00:19:42;;;;;;;0.10;0.05;;;;;;;;;;5089069;28;20080;-61
2022/07/05 00:22:08;;;;;;;0.00;0.00;;;;;;;;;;5088460;28;20076;-61
2022/07/05 00:24:35;;;;;;;0.00;0.00;;;;;;;;;;5088982;28;20057;-61
2022/07/05 00:27:02;;;;;;;0.00;0.00;;;;;;;;;;5089719;28;20060;-61
2022/07/05 00:29:28;;;;;;;0.05;0.00;;;;;;;;;;5087987;28;20082;-60
2022/07/05 00:31:55;;;;;;;0.00;0.00;;;;;;;;;;5101113;27;20867;-60
2022/07/05 00:34:21;;;;;;;0.00;0.00;;;;;;;;;;5090016;28;20056;-60
2022/07/05 00:36:47;;;;;;;0.00;0.00;;;;;;;;;;5094362;28;20096;-61
2022/07/05 00:39:14;;;;;;;0.00;0.00;;;;;;;;;;5093757;28;20138;-61
2022/07/05 00:41:40;;;;;;;0.00;0.00;;;;;;;;;;5094215;28;20169;-61
2022/07/05 00:44:08;;;;;;;0.00;0.00;;;;;;;;;;5087960;27;20099;-61
2022/07/05 00:46:36;;;;;;;0.00;0.00;;;;;;;;;;5089445;28;20495;-61
2022/07/05 00:49:03;;;;;;;0.00;0.00;;;;;;;;;;5080629;28;20057;-61
2022/07/05 00:51:31;;;;;;;0.00;0.00;;;;;;;;;;5085615;28;20061;-60
2022/07/05 00:53:58;;;;;;;0.00;0.00;;;;;;;;;;5088380;28;20139;-61
2022/07/05 00:56:25;;;;;;;0.00;0.00;;;;;;;;;;5078812;28;20080;-61
2022/07/05 00:58:51;;;;;;;0.00;0.00;;;;;;;;;;5087749;28;20056;-60
2022/07/05 01:01:18;;;;;;;0.00;0.00;;;;;;;;;;5087491;28;20134;-60
2022/07/05 01:03:45;;;;;;;0.00;0.00;;;;;;;;;;5088396;28;20159;-61
2022/07/05 01:06:12;;;;;;;0.00;0.00;;;;;;;;;;5088539;27;20539;-61
2022/07/05 01:08:40;;;;;;;0.10;0.10;;;;;;;;;;5093522;28;20083;-60
2022/07/05 01:11:07;;;;;;;0.00;0.00;;;;;;;;;;5092206;28;20090;-60
2022/07/05 01:13:34;;;;;;;0.00;0.00;;;;;;;;;;5090481;28;20080;-60
2022/07/05 01:16:01;;;;;;;0.00;0.00;;;;;;;;;;5089427;27;20618;-61
2022/07/05 01:18:28;;;;;;;0.00;0.00;;;;;;;;;;5089238;28;20607;-61
2022/07/05 01:20:55;;;;;;;0.00;0.00;;;;;;;;;;5090427;28;20107;-61
2022/07/05 01:23:22;;;;;;;0.00;0.00;;;;;;;;;;5081529;28;20077;-61
2022/07/05 01:25:49;;;;;;;0.00;0.00;;;;;;;;;;5091453;28;20098;-61
2022/07/05 01:28:15;;;;;;;0.00;0.00;;;;;;;;;;5091504;28;20694;-61
2022/07/05 01:30:42;;;;;;;0.00;0.00;;;;;;;;;;5100372;28;20067;-60
2022/07/05 01:33:08;;;;;;;0.00;0.00;;;;;;;;;;5085078;28;20052;-61
2022/07/05 01:35:35;;;;;;;0.00;0.00;;;;;;;;;;5085812;28;20072;-61
2022/07/05 01:38:03;;;;;;;0.00;0.00;;;;;;;;;;5099899;27;20056;-60
2022/07/05 01:40:29;;;;;;;0.00;0.00;;;;;;;;;;5093130;27;20499;-60
2022/07/05 01:42:56;;;;;;;0.00;0.00;;;;;;;;;;5090644;28;20975;-61
2022/07/05 01:45:41;;;;;;;0.00;0.00;;;;;;;;;;5092476;28;20106;-60
2022/07/05 01:48:15;;;;;;;0.00;0.00;;;;;;;;;;5087266;28;20052;-60
2022/07/05 01:50:46;;;;;;;0.00;0.00;;;;;;;;;;5082649;28;20057;-61
2022/07/05 01:53:18;;;;;;;0.00;0.00;;;;;;;;;;5088800;28;20080;-61
2022/07/05 01:55:45;;;;;;;0.00;0.00;;;;;;;;;;5092593;28;20083;-60
2022/07/05 01:58:11;;;;;;;0.00;0.00;;;;;;;;;;5090268;28;20084;-61
2022/07/05 02:00:41;;;;;;;4.55;0.52;;;;;;;;;;5099237;28;20088;-60
2022/07/05 02:03:08;;;;;;;0.00;0.00;;;;;;;;;;5096302;28;20076;-60
2022/07/05 02:05:35;;;;;;;0.00;0.00;;;;;;;;;;5084930;28;20119;-60
2022/07/05 02:08:01;;;;;;;0.00;0.00;;;;;;;;;;5100692;27;20100;-61
2022/07/05 02:10:27;;;;;;;0.00;0.00;;;;;;;;;;5094270;27;20088;-60
2022/07/05 02:12:54;;;;;;;0.00;0.00;;;;;;;;;;5089168;28;20117;-61
2022/07/05 02:15:20;;;;;;;0.00;0.00;;;;;;;;;;5091460;28;20080;-61
2022/07/05 02:17:46;;;;;;;0.00;0.00;;;;;;;;;;5092363;28;20057;-60
2022/07/05 02:20:13;;;;;;;0.00;0.00;;;;;;;;;;5094222;28;20133;-60
2022/07/05 02:22:39;;;;;;;0.00;0.00;;;;;;;;;;5092163;28;20557;-61
2022/07/05 02:25:06;;;;;;;0.00;0.00;;;;;;;;;;5081997;28;20143;-61
2022/07/05 02:27:32;;;;;;;0.00;0.00;;;;;;;;;;5100393;28;20052;-61
2022/07/05 02:30:00;;;;;;;0.00;0.00;;;;;;;;;;5103109;27;20052;-61
2022/07/05 02:32:26;;;;;;;0.00;0.00;;;;;;;;;;5094478;28;20084;-60
2022/07/05 02:34:52;;;;;;;0.00;0.00;;;;;;;;;;5089099;28;20084;-61
2022/07/05 02:37:19;;;;;;;0.00;0.00;;;;;;;;;;5095155;28;20129;-61
2022/07/05 02:39:45;;;;;;;0.15;0.03;;;;;;;;;;5096374;28;20086;-61
2022/07/05 02:42:11;;;;;;;0.00;0.00;;;;;;;;;;5092572;27;20052;-61
2022/07/05 02:44:38;;;;;;;0.00;0.00;;;;;;;;;;5090752;28;20092;-61
2022/07/05 02:47:04;;;;;;;0.00;0.00;;;;;;;;;;5089617;28;20092;-61
2022/07/05 02:49:30;;;;;;;0.00;0.00;;;;;;;;;;5082538;28;20052;-60
2022/07/05 02:51:57;;;;;;;0.15;0.00;;;;;;;;;;5091311;28;20101;-60
2022/07/05 02:54:23;;;;;;;0.00;0.00;;;;;;;;;;5087292;28;20137;-61
2022/07/05 02:56:49;;;;;;;0.00;0.00;;;;;;;;;;5086136;28;20146;-61
2022/07/05 02:59:16;;;;;;;0.00;0.00;;;;;;;;;;5095108;28;20044;-61
2022/07/05 03:01:42;;;;;;;0.00;0.00;;;;;;;;;;5100017;28;20052;-61
2022/07/05 03:04:09;;;;;;;0.00;0.00;;;;;;;;;;5101054;27;20996;-60
2022/07/05 03:06:37;;;;;;;0.00;0.00;;;;;;;;;;5094615;28;20060;-61
2022/07/05 03:09:03;;;;;;;0.00;0.00;;;;;;;;;;5092289;28;20052;-60
2022/07/05 03:11:30;;;;;;;0.00;0.00;;;;;;;;;;5093136;28;20056;-60
2022/07/05 03:13:56;;;;;;;0.00;0.00;;;;;;;;;;5090142;27;20056;-61
2022/07/05 03:16:24;;;;;;;0.00;0.00;;;;;;;;;;5087974;28;20380;-60
2022/07/05 03:18:50;;;;;;;0.00;0.00;;;;;;;;;;5086240;28;20049;-61
2022/07/05 03:21:17;;;;;;;0.00;0.00;;;;;;;;;;5085092;28;20650;-60
2022/07/05 03:23:43;;;;;;;0.00;0.00;;;;;;;;;;5092694;28;20044;-61
2022/07/05 03:26:10;;;;;;;0.00;0.00;;;;;;;;;;5088966;28;20514;-60
2022/07/05 03:28:36;;;;;;;0.00;0.00;;;;;;;;;;5093413;28;20061;-61
2022/07/05 03:31:03;;;;;;;0.00;0.00;;;;;;;;;;5096963;28;20080;-61
2022/07/05 03:33:29;;;;;;;0.00;0.00;;;;;;;;;;5088676;28;20518;-61
2022/07/05 03:35:56;;;;;;;0.00;0.00;;;;;;;;;;5094687;27;20055;-61
2022/07/05 03:38:22;;;;;;;0.00;0.00;;;;;;;;;;5086617;28;20592;-60
2022/07/05 03:40:48;;;;;;;0.00;0.00;;;;;;;;;;5084055;28;20067;-60
2022/07/05 03:43:15;;;;;;;0.20;0.05;;;;;;;;;;5090890;28;20056;-60
2022/07/05 03:45:41;;;;;;;0.00;0.00;;;;;;;;;;5088374;28;20111;-61
2022/07/05 03:48:08;;;;;;;0.00;0.00;;;;;;;;;;5083624;28;20052;-61
2022/07/05 03:50:54;;;;;;;0.00;0.00;;;;;;;;;;5088001;28;20092;-61
2022/07/05 03:53:21;;;;;;;0.00;0.00;;;;;;;;;;5087569;28;20057;-61
2022/07/05 03:55:47;;;;;;;0.00;0.00;;;;;;;;;;5088674;28;20058;-61
2022/07/05 03:58:13;;;;;;;0.00;0.00;;;;;;;;;;5088049;28;20049;-60
2022/07/05 04:00:40;;;;;;;0.00;0.00;;;;;;;;;;5093538;28;20044;-61
2022/07/05 04:03:07;;;;;;;0.00;0.00;;;;;;;;;;5086810;28;20131;-60
2022/07/05 04:05:33;;;;;;;0.00;0.00;;;;;;;;;;5091439;28;20517;-61
2022/07/05 04:07:59;;;;;;;0.00;0.00;;;;;;;;;;5096401;27;20102;-61
2022/07/05 04:10:26;;;;;;;0.00;0.00;;;;;;;;;;5088979;28;20430;-61
2022/07/05 04:12:52;;;;;;;0.00;0.00;;;;;;;;;;5088833;28;20052;-61
2022/07/05 04:15:19;;;;;;;0.00;0.00;;;;;;;;;;5090148;28;20052;-61
2022/07/05 04:17:49;;;;;;;0.00;0.00;;;;;;;;;;5089084;28;20059;-61
2022/07/05 04:20:16;;;;;;;0.00;0.00;;;;;;;;;;5084405;28;20057;-61
2022/07/05 04:22:42;;;;;;;0.00;0.00;;;;;;;;;;5090096;28;20056;-61
2022/07/05 04:25:18;;;;;;;0.00;0.00;;;;;;;;;;5088519;28;20052;-61
2022/07/05 04:27:49;;;;;;;0.00;0.00;;;;;;;;;;5100459;28;20095;-61
2022/07/05 04:30:16;;;;;;;0.00;0.00;;;;;;;;;;5087002;27;20060;-61
2022/07/05 04:32:43;;;;;;;0.00;0.00;;;;;;;;;;5095310;27;20056;-61
2022/07/05 04:35:10;;;;;;;0.00;0.00;;;;;;;;;;5093648;28;20514;-61
2022/07/05 04:37:37;;;;;;;0.00;0.00;;;;;;;;;;5087539;28;20069;-61
2022/07/05 04:40:05;;;;;;;0.40;0.28;;;;;;;;;;5088184;27;20071;-61
2022/07/05 04:42:31;;;;;;;0.00;0.00;;;;;;;;;;5088934;28;20511;-61
2022/07/05 04:44:58;;;;;;;0.00;0.00;;;;;;;;;;5087650;28;20514;-61
2022/07/05 04:47:25;;;;;;;0.00;0.00;;;;;;;;;;5083937;28;20546;-61
2022/07/05 04:49:52;;;;;;;0.00;0.00;;;;;;;;;;5089519;28;20060;-61
2022/07/05 04:52:18;;;;;;;0.00;0.00;;;;;;;;;;5088775;28;20060;-60
2022/07/05 04:54:45;;;;;;;0.00;0.00;;;;;;;;;;5091255;28;20056;-61
2022/07/05 04:57:11;;;;;;;0.00;0.00;;;;;;;;;;5096686;28;20548;-61
2022/07/05 04:59:38;;;;;;;0.00;0.00;;;;;;;;;;5097302;28;20110;-60
2022/07/05 05:02:04;;;;;;;0.00;0.00;;;;;;;;;;5091154;28;20060;-61
2022/07/05 05:04:31;;;;;;;0.00;0.00;;;;;;;;;;5096371;27;20055;-61
2022/07/05 05:06:58;;;;;;;0.00;0.00;;;;;;;;;;5093181;28;20083;-61
2022/07/05 05:09:24;;;;;;;0.00;0.00;;;;;;;;;;5089730;28;20567;-61
2022/07/05 05:11:51;;;;;;;0.00;0.00;;;;;;;;;;5095687;28;20087;-61
2022/07/05 05:14:17;;;;;;;0.10;0.00;;;;;;;;;;5092002;28;20503;-61
2022/07/05 05:16:43;;;;;;;0.00;0.00;;;;;;;;;;5090285;28;20107;-61
2022/07/05 05:19:10;;;;;;;0.00;0.00;;;;;;;;;;5087117;28;20529;-60
2022/07/05 05:21:36;;;;;;;0.00;0.00;;;;;;;;;;5088724;28;20088;-61
2022/07/05 05:24:03;;;;;;;0.00;0.00;;;;;;;;;;5097302;27;20231;-61
2022/07/05 05:26:29;;;;;;;0.00;0.00;;;;;;;;;;5099401;27;20045;-61
2022/07/05 05:28:56;;;;;;;0.00;0.00;;;;;;;;;;5098670;28;20137;-61
2022/07/05 05:31:22;;;;;;;0.00;0.00;;;;;;;;;;5099366;28;20102;-61
2022/07/05 05:33:49;;;;;;;0.00;0.00;;;;;;;;;;5101358;28;20054;-61
2022/07/05 05:36:15;;;;;;;0.13;0.13;;;;;;;;;;5092466;27;20137;-61
2022/07/05 05:38:41;;;;;;;0.00;0.00;;;;;;;;;;5093786;28;20161;-61
2022/07/05 05:41:14;;;;;;;0.00;0.00;;;;;;;;;;5086253;28;20412;-61
2022/07/05 05:43:40;;;;;;;0.00;0.00;;;;;;;;;;5085105;28;20564;-60
2022/07/05 05:46:07;;;;;;;0.00;0.00;;;;;;;;;;5086871;28;20102;-59
2022/07/05 05:48:33;;;;;;;0.00;0.00;;;;;;;;;;5079427;28;20059;-60
2022/07/05 05:51:00;;;;;;;0.00;0.00;;;;;;;;;;5091458;28;20083;-59
2022/07/05 05:53:27;;;;;;;0.00;0.00;;;;;;;;;;5080848;28;20517;-60
2022/07/05 05:55:55;;;;;;;;;;;;;;;;;;5093611;27;20048;-59
2022/07/05 05:58:23;;;;;;;0.00;0.00;;;;;;;;;;5103607;28;43651;-60
2022/07/05 06:00:52;;;;;;;;;;;;;;;;;;5092137;27;20048;-60
2022/07/05 06:03:22;;;;;;;0.00;0.00;;;;;;;;;;5092965;28;46194;-60
2022/07/05 06:05:49;;;;;;;0.00;0.00;;;;;;;;;;5092878;28;20110;-60
2022/07/05 06:08:15;;;;;;;0.00;0.00;;;;;;;;;;5088374;28;20092;-60
2022/07/05 06:10:42;;;;;;;0.00;0.00;;;;;;;;;;5086685;28;20057;-59
2022/07/05 06:13:10;;;;;;;0.00;0.00;;;;;;;;;;5090925;28;20495;-59
2022/07/05 06:15:35;;;;;;;0.00;0.00;;;;;;;;;;5083227;28;20029;-59
2022/07/05 06:18:02;;;;;;;0.00;0.00;;;;;;;;;;5087996;28;20049;-59
2022/07/05 06:20:30;;;;;;;0.08;0.08;;;;;;;;;;5088783;28;20049;-61
2022/07/05 06:22:57;;;;;;;0.00;0.00;;;;;;;;;;5085859;28;20546;-60
2022/07/05 06:25:24;;;;;;;0.00;0.00;;;;;;;;;;5091748;28;20518;-60
2022/07/05 06:27:52;;;;;;;0.00;0.00;;;;;;;;;;5103116;28;20052;-59
2022/07/05 06:30:19;;;;;;;;;;;;;;;;;;5091785;28;20056;-60
2022/07/05 06:32:46;;;;;;;0.00;0.00;;;;;;;;;;5086442;28;47038;-60
2022/07/05 06:35:13;;;;;;;0.00;0.00;;;;;;;;;;5091876;28;20076;-61
2022/07/05 06:37:42;;;;;;;0.00;0.00;;;;;;;;;;5096766;28;20075;-61
2022/07/05 06:40:09;;;;;;;0.00;0.00;;;;;;;;;;5094157;27;20052;-61
2022/07/05 06:42:42;;;;;;;0.00;0.00;;;;;;;;;;5087918;28;20059;-61
2022/07/05 06:45:09;;;;;;;0.00;0.00;;;;;;;;;;5085630;28;20130;-63
2022/07/05 06:47:36;;;;;;;0.00;0.00;;;;;;;;;;5086098;28;20056;-64
2022/07/05 06:50:03;;;;;;;0.00;0.00;;;;;;;;;;5091826;28;20048;-66
2022/07/05 06:52:31;;;;;;;0.00;0.00;;;;;;;;;;5092551;28;20052;-63
2022/07/05 06:54:58;;;;;;;0.00;0.00;;;;;;;;;;5089422;28;20102;-64
2022/07/05 06:57:24;;;;;;;0.00;0.00;;;;;;;;;;5094575;28;20056;-64
2022/07/05 06:59:58;;;;;;;0.00;0.00;;;;;;;;;;5085064;28;20121;-65
2022/07/05 07:02:26;;;;;;;0.00;0.00;;;;;;;;;;5097743;27;20052;-64
2022/07/05 07:04:52;;;;;;;0.20;0.15;;;;;;;;;;5088272;28;20148;-63
2022/07/05 07:10:22;;;;;;;0.00;0.00;;;;;;;;;;5090507;28;20060;-62
2022/07/05 07:12:55;;;;;;;0.00;0.00;;;;;;;;;;5081129;28;20048;-64
2022/07/05 07:15:21;;;;;;;0.00;0.00;;;;;;;;;;5082328;28;20592;-63
2022/07/05 07:17:48;;;;;;;0.00;0.00;;;;;;;;;;5093743;28;20587;-62
2022/07/05 07:20:14;;;;;;;0.00;0.00;;;;;;;;;;5085518;28;20110;-63
2022/07/05 07:22:40;;;;;;;0.00;0.00;;;;;;;;;;5093822;28;20056;-62
2022/07/05 07:25:08;;;;;;;0.00;0.00;;;;;;;;;;5092181;28;20048;-62
2022/07/05 07:27:44;;;;;;;0.00;0.00;;;;;;;;;;5083362;28;20103;-63
2022/07/05 07:30:11;;;;;;;0.00;0.00;;;;;;;;;;5082266;28;20064;-63
2022/07/05 07:32:38;;;;;;;0.00;0.00;;;;;;;;;;5089841;28;20107;-68
2022/07/05 07:35:05;;;;;;;0.00;0.00;;;;;;;;;;5095778;28;20080;-63
2022/07/05 07:37:31;;;;;;;0.00;0.00;;;;;;;;;;5092388;28;20137;-63
2022/07/05 07:39:58;;;;;;;0.00;0.00;;;;;;;;;;5089570;28;20213;-63
2022/07/05 07:42:24;;;;;;;0.00;0.00;;;;;;;;;;5085956;28;20049;-64
2022/07/05 07:44:51;;;;;;;0.00;0.00;;;;;;;;;;5081294;28;20048;-61
2022/07/05 07:47:17;;;;;;;0.00;0.00;;;;;;;;;;5082013;28;20111;-61
2022/07/05 07:49:44;;;;;;;0.00;0.00;;;;;;;;;;5090201;28;20084;-60
2022/07/05 07:52:12;;;;;;;0.00;0.00;;;;;;;;;;5089083;27;20045;-62
2022/07/05 07:54:38;;;;;;;0.00;0.00;;;;;;;;;;5086550;28;20060;-60
2022/07/05 07:57:05;;;;;;;0.00;0.00;;;;;;;;;;5081281;28;20145;-61
2022/07/05 07:59:31;;;;;;;0.00;0.00;;;;;;;;;;5088599;28;20052;-63
2022/07/05 08:01:58;;;;;;;0.00;0.00;;;;;;;;;;5085952;28;20113;-62
2022/07/05 08:04:24;;;;;;;0.00;0.00;;;;;;;;;;5093582;27;20115;-60
2022/07/05 08:06:51;;;;;;;0.00;0.00;;;;;;;;;;5090211;28;20887;-61
2022/07/05 08:09:17;;;;;;;0.00;0.00;;;;;;;;;;5083441;28;20088;-60
2022/07/05 08:11:45;;;;;;;0.00;0.00;;;;;;;;;;5087516;28;20130;-61
2022/07/05 08:14:11;;;;;;;0.00;0.00;;;;;;;;;;5088261;28;20478;-61
2022/07/05 08:16:37;;;;;;;0.00;0.00;;;;;;;;;;5087267;28;20884;-62
2022/07/05 08:21:49;;;;;;;0.00;0.00;;;;;;;;;;5091226;28;20056;-60
2022/07/05 08:24:15;;;;;;;0.00;0.00;;;;;;;;;;5087855;28;20056;-61
2022/07/05 08:26:42;;;;;;;0.00;0.00;;;;;;;;;;5083098;28;21063;-65
2022/07/05 08:29:09;;;;;;;0.00;0.00;;;;;;;;;;5082484;28;20061;-62
2022/07/05 08:31:41;;;;;;;0.00;0.00;;;;;;;;;;5092448;28;20102;-62
2022/07/05 08:34:07;;;;;;;0.00;0.00;;;;;;;;;;5090418;27;20048;-62
2022/07/05 08:36:34;;;;;;;0.00;0.00;;;;;;;;;;5087316;28;20525;-61
2022/07/05 08:39:00;;;;;;;0.00;0.00;;;;;;;;;;5085977;28;20494;-61
2022/07/05 08:41:28;;;;;;;0.00;0.00;;;;;;;;;;5084088;28;20056;-60
2022/07/05 08:43:54;;;;;;;;;;;;;;;;;;5087245;28;20846;-61
2022/07/05 08:46:21;;;;;;;0.00;0.00;;;;;;;;;;5076335;28;44733;-61
2022/07/05 08:48:48;;;;;;;0.00;0.00;;;;;;;;;;5090586;28;20517;-61
2022/07/05 08:51:20;;;;;;;0.00;0.00;;;;;;;;;;5089327;28;20084;-62
2022/07/05 08:53:48;;;;;;;0.00;0.00;;;;;;;;;;5088748;28;20075;-60
2022/07/05 08:56:14;;;;;;;0.00;0.00;;;;;;;;;;5094265;28;20091;-61
2022/07/05 08:58:52;;;;;;;0.00;0.00;;;;;;;;;;5095090;28;20055;-61
2022/07/05 09:01:18;;;;;;;0.00;0.00;;;;;;;;;;5093033;28;20130;-62
2022/07/05 09:03:49;;;;;;;0.00;0.00;;;;;;;;;;5081780;28;20048;-62
2022/07/05 09:06:17;;;;;;;0.00;0.00;;;;;;;;;;5089197;28;20052;-61
2022/07/05 09:08:44;;;;;;;0.00;0.00;;;;;;;;;;5089769;28;20056;-60
2022/07/05 09:11:15;;;;;;;0.00;0.00;;;;;;;;;;5089741;28;20068;-60
2022/07/05 09:13:42;;;;;;;0.00;0.00;;;;;;;;;;5085764;28;20049;-60
2022/07/05 09:16:29;;;;;;;0.00;0.00;;;;;;;;;;5086835;28;20052;-60
2022/07/05 09:18:56;;;;;;;0.00;0.00;;;;;;;;;;5084161;28;20072;-60
2022/07/05 09:21:23;;;;;;;0.00;0.00;;;;;;;;;;5098522;28;20065;-59
2022/07/05 09:23:59;;;;;;;0.00;0.00;;;;;;;;;;5084023;28;20056;-59
2022/07/05 09:26:33;;;;;;;0.00;0.00;;;;;;;;;;5093121;28;20064;-60
2022/07/05 09:28:59;;;;;;;0.00;0.00;;;;;;;;;;5092041;28;20073;-59
2022/07/05 09:31:49;;;;;;;0.00;0.00;;;;;;;;;;5096734;28;20139;-60
2022/07/05 09:34:16;;;;;;;0.00;0.00;;;;;;;;;;5092946;27;20101;-62
2022/07/05 09:36:56;;;;;;;0.00;0.00;;;;;;;;;;5081135;28;20111;-62
2022/07/05 09:39:29;;;;;;;0.00;0.00;;;;;;;;;;5086455;28;20060;-62
2022/07/05 09:42:14;;;;;;;0.00;0.00;;;;;;;;;;5089366;28;20241;-61
2022/07/05 09:44:44;;;;;;;0.00;0.00;;;;;;;;;;5080984;28;21970;-61
2022/07/05 09:47:13;;;;;;;0.00;0.00;;;;;;;;;;5090338;28;20076;-61
2022/07/05 09:49:49;;;;;;;0.00;0.00;;;;;;;;;;5095747;28;20118;-62
2022/07/05 09:52:34;;;;;;;0.00;0.00;;;;;;;;;;5081753;28;20087;-61
2022/07/05 09:55:05;;;;;;;0.00;0.00;;;;;;;;;;5088544;28;20056;-62
2022/07/05 09:57:33;;;;;;;0.00;0.00;;;;;;;;;;5091036;28;20049;-61
2022/07/05 10:00:04;;;;;;;0.00;0.00;;;;;;;;;;5101282;27;20079;-62
2022/07/05 10:02:40;;;;;;;0.00;0.00;;;;;;;;;;5096941;27;20568;-61
2022/07/05 10:05:25;;;;;;;0.00;0.00;;;;;;;;;;5095176;28;20601;-61
2022/07/05 10:07:55;;;;;;;0.00;0.00;;;;;;;;;;5088944;28;20501;-61
2022/07/05 10:10:25;;;;;;;0.00;0.00;;;;;;;;;;5091340;28;20576;-61
2022/07/05 10:12:53;;;;;;;0.00;0.00;;;;;;;;;;5090107;28;20580;-61
2022/07/05 10:15:20;;;;;;;0.00;0.00;;;;;;;;;;5085718;28;20072;-61
2022/07/05 10:17:59;;;;;;;0.00;0.00;;;;;;;;;;5092821;28;20091;-61
2022/07/05 10:20:32;;;;;;;0.10;0.10;;;;;;;;;;5083232;28;20159;-61
2022/07/05 10:23:01;;;;;;;0.00;0.00;;;;;;;;;;5089615;28;20049;-62
2022/07/05 10:25:34;;;;;;;0.00;0.00;;;;;;;;;;5089007;28;20053;-61
2022/07/05 10:28:00;;;;;;;0.00;0.00;;;;;;;;;;5093073;27;20502;-61
2022/07/05 10:30:27;;;;;;;0.00;0.00;;;;;;;;;;5095372;27;20056;-61
2022/07/05 10:32:54;;;;;;;0.00;0.00;;;;;;;;;;5090857;28;20059;-60
2022/07/05 10:35:21;;;;;;;0.00;0.00;;;;;;;;;;5094686;28;20080;-62
2022/07/05 10:37:50;;;;;;;0.00;0.00;;;;;;;;;;5096323;28;20131;-61
2022/07/05 10:40:18;;;;;;;0.00;0.00;;;;;;;;;;5087504;28;20085;-62
2022/07/05 10:42:52;;;;;;;0.03;0.03;;;;;;;;;;5088961;28;20052;-62
2022/07/05 10:45:23;;;;;;;0.00;0.00;;;;;;;;;;5085666;28;20033;-65
2022/07/05 10:48:08;;;;;;;0.00;0.00;;;;;;;;;;5092811;28;20075;-63
2022/07/05 10:50:53;;;;;;;0.00;0.00;;;;;;;;;;5081029;28;20126;-62
2022/07/05 10:53:22;;;;;;;0.00;0.00;;;;;;;;;;5090757;28;20095;-63
2022/07/05 10:55:53;;;;;;;0.00;0.00;;;;;;;;;;5092259;28;20575;-62
2022/07/05 10:58:20;;;;;;;0.00;0.00;;;;;;;;;;5099199;27;20052;-64
2022/07/05 11:00:48;;;;;;;0.00;0.00;;;;;;;;;;5093126;28;20210;-63
2022/07/05 11:03:35;;;;;;;0.00;0.00;;;;;;;;;;5093842;28;20275;-63
2022/07/05 11:06:04;;;;;;;0.00;0.00;;;;;;;;;;5092202;28;20056;-64
2022/07/05 11:08:51;;;;;;;0.00;0.00;;;;;;;;;;5088907;28;20055;-64
2022/07/05 11:11:23;;;;;;;0.00;0.00;;;;;;;;;;5088988;28;20088;-63
2022/07/05 11:13:49;;;;;;;0.00;0.00;;;;;;;;;;5079893;28;20510;-62
2022/07/05 11:16:19;;;;;;;0.00;0.00;;;;;;;;;;5091593;28;20084;-63
2022/07/05 11:18:46;;;;;;;0.00;0.00;;;;;;;;;;5090671;28;20065;-63
2022/07/05 11:21:17;;;;;;;0.00;0.00;;;;;;;;;;5098695;28;20545;-63
2022/07/05 11:23:43;;;;;;;0.00;0.00;;;;;;;;;;5097132;28;20053;-62
2022/07/05 11:26:11;;;;;;;0.00;0.00;;;;;;;;;;5097452;27;20121;-61
2022/07/05 11:28:43;;;;;;;0.00;0.00;;;;;;;;;;5095073;27;20060;-62
2022/07/05 11:31:10;;;;;;;0.00;0.00;;;;;;;;;;5090670;28;20563;-62
2022/07/05 11:33:42;;;;;;;0.00;0.00;;;;;;;;;;5088348;28;20551;-61
2022/07/05 11:36:31;;;;;;;0.00;0.00;;;;;;;;;;5090106;27;20948;-61
2022/07/05 11:39:12;;;;;;;0.00;0.00;;;;;;;;;;5073653;28;20148;-62
2022/07/05 11:41:41;;;;;;;0.00;0.00;;;;;;;;;;5079727;28;20404;-62
2022/07/05 11:44:08;;;;;;;0.00;0.00;;;;;;;;;;5092135;28;20072;-62
2022/07/05 11:46:34;;;;;;;0.00;0.00;;;;;;;;;;5090117;28;20084;-62
2022/07/05 11:49:18;;;;;;;0.00;0.00;;;;;;;;;;5088110;28;20115;-62
2022/07/05 11:51:56;;;;;;;0.00;0.00;;;;;;;;;;5087185;28;20135;-61
2022/07/05 11:54:23;;;;;;;0.00;0.00;;;;;;;;;;5089839;28;21134;-62
2022/07/05 11:56:50;;;;;;;0.00;0.00;;;;;;;;;;5091750;28;20048;-62
2022/07/05 11:59:20;;;;;;;0.00;0.00;;;;;;;;;;5092240;28;20056;-62
2022/07/05 12:01:47;;;;;;;0.00;0.00;;;;;;;;;;5090254;28;20087;-61
2022/07/05 12:04:22;;;;;;;0.00;0.00;;;;;;;;;;5090914;27;20053;-61
2022/07/05 12:06:50;;;;;;;0.00;0.00;;;;;;;;;;5089764;28;20159;-64
2022/07/05 12:09:22;;;;;;;0.00;0.00;;;;;;;;;;5084069;28;20045;-65
2022/07/05 12:14:34;;;;;;;0.00;0.00;;;;;;;;;;5081214;28;20530;-63
2022/07/05 12:17:13;;;;;;;0.00;0.00;;;;;;;;;;5085770;28;20592;-63
2022/07/05 12:19:50;;;;;;;0.00;0.00;;;;;;;;;;5088757;28;20052;-61
2022/07/05 12:22:16;;;;;;;;;;;;;;;;;;5092829;28;20091;-61
2022/07/05 12:24:43;;;;;;;0.00;0.00;;;;;;;;;;5093541;28;45559;-60
2022/07/05 12:27:09;;;;;;;0.00;0.00;;;;;;;;;;5093134;28;20115;-61
2022/07/05 12:29:36;;;;;;;0.00;0.00;;;;;;;;;;5093986;28;20083;-61
2022/07/05 12:32:03;;;;;;;0.00;0.00;;;;;;;;;;5087381;27;20465;-60
2022/07/05 12:34:30;;;;;;;0.00;0.00;;;;;;;;;;5086743;28;20545;-62
2022/07/05 12:36:57;;;;;;;0.00;0.00;;;;;;;;;;5088894;28;20103;-61
2022/07/05 12:39:24;;;;;;;0.00;0.00;;;;;;;;;;5087117;28;20072;-61
2022/07/05 12:41:50;;;;;;;0.00;0.00;;;;;;;;;;5087472;28;20082;-61
2022/07/05 12:44:20;;;;;;;0.28;0.28;;;;;;;;;;5083907;28;20114;-60
2022/07/05 12:46:49;;;;;;;0.00;0.00;;;;;;;;;;5085660;28;20101;-61
2022/07/05 12:49:15;;;;;;;0.00;0.00;;;;;;;;;;5086995;28;20059;-63
2022/07/05 12:51:42;;;;;;;0.00;0.00;;;;;;;;;;5095773;28;20574;-65
2022/07/05 12:59:56;;;;;;;0.00;0.00;;;;;;;;;;5093638;28;20177;-65
2022/07/05 13:02:33;;;;;;;0.00;0.00;;;;;;;;;;5087988;28;20448;-65
2022/07/05 13:04:59;;;;;;;0.00;0.00;;;;;;;;;;5081827;28;20056;-65
2022/07/05 13:07:26;;;;;;;0.00;0.00;;;;;;;;;;5087547;28;20530;-65
2022/07/05 13:10:14;;;;;;;0.00;0.00;;;;;;;;;;5084249;28;20518;-64
2022/07/05 13:12:40;;;;;;;0.00;0.00;;;;;;;;;;5086485;28;20594;-65
2022/07/05 13:15:07;;;;;;;0.00;0.00;;;;;;;;;;5091247;28;20557;-65
2022/07/05 13:17:33;;;;;;;0.00;0.00;;;;;;;;;;5086786;28;20504;-64
2022/07/05 13:20:03;;;;;;;0.00;0.00;;;;;;;;;;5099587;27;20058;-64
2022/07/05 13:22:29;;;;;;;0.00;0.00;;;;;;;;;;5098135;28;20083;-64
2022/07/05 13:24:55;;;;;;;0.00;0.00;;;;;;;;;;5090296;28;20048;-65
2022/07/05 13:27:22;;;;;;;0.00;0.00;;;;;;;;;;5092438;28;20102;-64
2022/07/05 13:29:54;;;;;;;0.00;0.00;;;;;;;;;;5085853;28;20528;-65
2022/07/05 13:32:21;;;;;;;0.00;0.00;;;;;;;;;;5089970;28;20568;-64
2022/07/05 13:34:48;;;;;;;0.00;0.00;;;;;;;;;;5089889;28;20518;-64
2022/07/05 13:37:15;;;;;;;0.00;0.00;;;;;;;;;;5091335;28;20102;-64
2022/07/05 13:39:41;;;;;;;0.00;0.00;;;;;;;;;;5078754;28;20049;-65
2022/07/05 13:42:07;;;;;;;0.00;0.00;;;;;;;;;;5093817;28;20114;-64
2022/07/05 13:44:34;;;;;;;0.00;0.00;;;;;;;;;;5091623;28;20135;-64
2022/07/05 13:47:01;;;;;;;0.00;0.00;;;;;;;;;;5090548;28;20106;-65
2022/07/05 13:49:28;;;;;;;0.00;0.00;;;;;;;;;;5099003;28;20506;-65
2022/07/05 13:51:54;;;;;;;0.00;0.00;;;;;;;;;;5099703;27;20052;-65
2022/07/05 13:54:20;;;;;;;0.00;0.00;;;;;;;;;;5096155;27;20052;-65
2022/07/05 13:56:47;;;;;;;0.00;0.00;;;;;;;;;;5093897;28;20060;-65
2022/07/05 13:59:18;;;;;;;0.00;0.00;;;;;;;;;;5092997;28;20056;-65
2022/07/05 14:01:44;;;;;;;0.00;0.00;;;;;;;;;;5091643;28;20126;-65
2022/07/05 14:04:11;;;;;;;0.00;0.00;;;;;;;;;;5089861;28;20049;-65
2022/07/05 14:06:37;;;;;;;0.00;0.00;;;;;;;;;;5090587;28;20545;-66
2022/07/05 14:09:04;;;;;;;0.00;0.00;;;;;;;;;;5092090;28;20094;-65
2022/07/05 14:11:30;;;;;;;0.00;0.00;;;;;;;;;;5093175;28;20161;-66
2022/07/05 14:13:57;;;;;;;0.00;0.00;;;;;;;;;;5090876;27;20142;-65
2022/07/05 14:16:23;;;;;;;0.00;0.00;;;;;;;;;;5088921;28;20060;-66
2022/07/05 14:18:50;;;;;;;0.10;0.10;;;;;;;;;;5096981;28;20138;-66
2022/07/05 14:21:17;;;;;;;0.00;0.00;;;;;;;;;;5096059;28;20495;-65
2022/07/05 14:23:46;;;;;;;0.00;0.00;;;;;;;;;;5097225;28;20056;-66
2022/07/05 14:26:15;;;;;;;0.00;0.00;;;;;;;;;;5090377;27;20106;-66
2022/07/05 14:28:42;;;;;;;0.03;0.03;;;;;;;;;;5090363;28;20114;-65
2022/07/05 14:31:09;;;;;;;0.00;0.00;;;;;;;;;;5091010;28;20130;-65
2022/07/05 14:33:37;;;;;;;0.00;0.00;;;;;;;;;;5090714;28;20048;-65
2022/07/05 14:36:04;;;;;;;0.00;0.00;;;;;;;;;;5092052;28;20101;-65
2022/07/05 14:38:30;;;;;;;0.00;0.00;;;;;;;;;;5091546;28;20080;-66
2022/07/05 14:40:57;;;;;;;0.00;0.00;;;;;;;;;;5101022;28;20064;-66
2022/07/05 14:43:23;;;;;;;0.00;0.00;;;;;;;;;;5087821;28;20083;-66
2022/07/05 14:45:50;;;;;;;0.00;0.00;;;;;;;;;;5098967;28;20076;-66
2022/07/05 14:48:16;;;;;;;0.00;0.00;;;;;;;;;;5096852;28;20114;-66
2022/07/05 14:50:46;;;;;;;0.00;0.00;;;;;;;;;;5093774;28;20146;-66
2022/07/05 14:53:13;;;;;;;0.00;0.00;;;;;;;;;;5093673;28;20053;-65
2022/07/05 14:55:40;;;;;;;0.00;0.00;;;;;;;;;;5095138;28;20052;-65
2022/07/05 14:58:07;;;;;;;0.00;0.00;;;;;;;;;;5091079;27;20072;-66
2022/07/05 15:00:33;;;;;;;0.00;0.00;;;;;;;;;;5089167;28;20057;-66
2022/07/05 15:03:00;;;;;;;0.00;0.00;;;;;;;;;;5088807;28;20664;-65
2022/07/05 15:05:26;;;;;;;0.00;0.00;;;;;;;;;;5089840;28;20052;-66